Time;durP1;ratioP1;P1;durP2;ratioP2;P2;SDS_P1;SDS_P2;PMS_P1;PMS_P2;Temp;Humidity;BMP_temperature;BMP_pressure;BME280_temperature;BME280_humidity;BME280_pressure;Samples;Min_cycle;Max_cycle;Signal;HPM_P1;HPM_P2
2023/10/04 00:02:12;;;;;;;41.90;31.58;;;19.30;76.60;;;;;;5056037;28;20031;-64
2023/10/04 00:04:39;;;;;;;43.42;32.30;;;19.30;76.70;;;;;;5056079;28;20108;-64
2023/10/04 00:07:07;;;;;;;42.58;31.42;;;19.30;76.70;;;;;;5055951;28;20454;-64
2023/10/04 00:09:33;;;;;;;48.22;39.08;;;19.40;76.90;;;;;;5055997;28;20029;-64
2023/10/04 00:12:01;;;;;;;45.60;36.30;;;19.40;77.10;;;;;;5056016;28;20017;-64
2023/10/04 00:14:30;;;;;;;42.58;34.13;;;19.40;77.50;;;;;;5056485;28;20032;-64
2023/10/04 00:17:00;;;;;;;50.78;38.17;;;19.30;77.20;;;;;;5055875;28;20047;-64
2023/10/04 00:19:34;;;;;;;39.22;30.80;;;19.30;77.10;;;;;;5056434;28;20029;-64
2023/10/04 00:22:01;;;;;;;46.70;37.25;;;19.30;76.90;;;;;;5055582;28;20040;-64
2023/10/04 00:24:28;;;;;;;48.95;37.28;;;19.30;77.50;;;;;;5055972;28;20043;-64
2023/10/04 00:26:54;;;;;;;48.67;35.80;;;19.30;77.30;;;;;;5056237;28;20021;-64
2023/10/04 00:29:20;;;;;;;53.30;37.25;;;19.30;77.60;;;;;;5056278;28;20017;-64
2023/10/04 00:31:47;;;;;;;44.67;31.85;;;19.30;78.20;;;;;;5056246;28;20151;-64
2023/10/04 00:34:15;;;;;;;42.35;32.22;;;19.30;77.80;;;;;;5055856;28;20029;-64
2023/10/04 00:36:48;;;;;;;44.33;31.83;;;19.40;77.60;;;;;;5055543;28;20033;-64
2023/10/04 00:39:14;;;;;;;38.20;28.38;;;19.40;77.40;;;;;;5054617;28;20049;-64
2023/10/04 00:41:46;;;;;;;41.78;30.13;;;19.40;77.50;;;;;;5055790;28;20043;-64
2023/10/04 00:44:12;;;;;;;48.75;32.97;;;19.50;77.40;;;;;;5056018;28;20028;-64
2023/10/04 00:46:41;;;;;;;42.95;33.97;;;19.50;77.50;;;;;;5055381;28;20048;-64
2023/10/04 00:49:11;;;;;;;40.28;30.83;;;19.50;77.70;;;;;;5055362;28;20100;-64
2023/10/04 00:51:38;;;;;;;38.33;31.17;;;19.50;77.20;;;;;;5055417;28;20427;-64
2023/10/04 00:54:09;;;;;;;35.30;28.20;;;19.50;77.10;;;;;;5055345;28;20040;-64
2023/10/04 00:56:38;;;;;;;46.38;35.88;;;19.50;77.10;;;;;;5055211;28;20032;-64
2023/10/04 00:59:07;;;;;;;48.20;33.55;;;19.50;77.60;;;;;;5055219;28;20389;-64
2023/10/04 01:01:40;;;;;;;45.47;32.65;;;19.50;77.90;;;;;;5055127;28;20504;-64
2023/10/04 01:04:07;;;;;;;44.50;32.67;;;19.50;77.60;;;;;;5055351;28;20033;-64
2023/10/04 01:06:35;;;;;;;38.45;29.13;;;19.60;77.60;;;;;;5055124;28;20426;-64
2023/10/04 01:09:08;;;;;;;48.53;35.35;;;19.60;77.60;;;;;;5055473;28;20025;-64
2023/10/04 01:11:48;;;;;;;48.58;36.75;;;19.60;77.50;;;;;;5055138;28;20036;-64
2023/10/04 01:14:26;;;;;;;44.00;34.17;;;19.60;77.90;;;;;;5059051;28;20126;-64
2023/10/04 01:16:53;;;;;;;45.70;35.97;;;19.60;77.80;;;;;;5059807;28;20025;-64
2023/10/04 01:19:20;;;;;;;43.97;33.13;;;19.60;77.70;;;;;;5059832;28;20025;-64
2023/10/04 01:21:47;;;;;;;42.25;30.45;;;19.60;78.20;;;;;;5059148;28;20079;-64
2023/10/04 01:24:14;;;;;;;47.53;35.40;;;19.60;77.80;;;;;;5059638;28;20434;-64
2023/10/04 01:26:41;;;;;;;45.53;34.00;;;19.60;78.00;;;;;;5059092;28;20017;-64
2023/10/04 01:29:11;;;;;;;44.90;34.42;;;19.60;78.00;;;;;;5059351;28;20036;-64
2023/10/04 01:31:37;;;;;;;42.65;31.08;;;19.70;78.20;;;;;;5059818;28;20036;-64
2023/10/04 01:34:06;;;;;;;40.45;31.02;;;19.70;78.20;;;;;;5059314;28;20059;-64
2023/10/04 01:36:36;;;;;;;41.80;32.63;;;19.70;78.00;;;;;;5058847;28;20116;-64
2023/10/04 01:39:08;;;;;;;42.53;34.10;;;19.70;77.90;;;;;;5058624;28;20076;-64
2023/10/04 01:41:40;;;;;;;35.20;27.85;;;19.80;77.80;;;;;;5058753;28;20041;-64
2023/10/04 01:44:09;;;;;;;42.42;34.47;;;19.70;77.50;;;;;;5058649;28;20025;-64
2023/10/04 01:46:37;;;;;;;37.83;28.42;;;19.80;77.80;;;;;;5058622;28;20040;-64
2023/10/04 01:49:05;;;;;;;37.08;28.60;;;19.80;77.70;;;;;;5058712;28;20021;-64
2023/10/04 01:51:34;;;;;;;38.33;29.02;;;19.80;77.60;;;;;;5058628;28;20040;-64
2023/10/04 01:54:06;;;;;;;38.08;27.92;;;19.90;77.60;;;;;;5058657;28;20029;-64
2023/10/04 01:56:37;;;;;;;42.10;29.55;;;19.90;77.50;;;;;;5040880;28;20033;-64
2023/10/04 01:59:05;;;;;;;37.33;26.35;;;19.80;77.50;;;;;;5058388;28;20024;-64
2023/10/04 02:01:31;;;;;;;36.05;27.85;;;19.90;77.50;;;;;;5058448;28;20082;-64
2023/10/04 02:04:04;;;;;;;34.95;27.27;;;19.90;77.50;;;;;;5058409;28;20090;-64
2023/10/04 02:06:30;;;;;;;33.40;26.77;;;19.80;77.30;;;;;;5058386;28;20032;-65
2023/10/04 02:08:57;;;;;;;38.15;28.00;;;19.80;77.40;;;;;;5058580;28;20021;-65
2023/10/04 02:11:30;;;;;;;44.15;31.73;;;19.80;77.40;;;;;;5058243;28;20021;-64
2023/10/04 02:14:01;;;;;;;41.20;31.75;;;19.70;77.50;;;;;;5058291;28;20039;-64
2023/10/04 02:16:28;;;;;;;40.00;31.45;;;19.70;77.50;;;;;;5058751;28;20323;-64
2023/10/04 02:18:56;;;;;;;41.50;31.52;;;19.70;77.60;;;;;;5058327;28;20079;-64
2023/10/04 02:21:24;;;;;;;39.20;31.08;;;19.60;77.90;;;;;;5058142;28;20053;-64
2023/10/04 02:23:54;;;;;;;40.50;32.13;;;19.60;77.80;;;;;;5057330;28;20037;-64
2023/10/04 02:26:28;;;;;;;38.38;28.90;;;19.70;77.80;;;;;;5057956;28;20031;-64
2023/10/04 02:28:59;;;;;;;52.40;37.13;;;19.60;77.90;;;;;;5057809;28;20025;-64
2023/10/04 02:31:25;;;;;;;48.40;35.60;;;19.60;78.10;;;;;;5058412;28;20021;-64
2023/10/04 02:34:04;;;;;;;58.45;43.40;;;19.60;78.20;;;;;;5040316;28;20355;-64
2023/10/04 02:36:48;;;;;;;47.55;36.05;;;19.60;79.60;;;;;;5056898;28;20033;-64
2023/10/04 02:39:14;;;;;;;51.17;40.40;;;19.50;79.20;;;;;;5057638;28;20124;-64
2023/10/04 02:41:47;;;;;;;49.10;36.78;;;19.50;79.70;;;;;;5057744;28;20075;-65
2023/10/04 02:44:15;;;;;;;47.55;35.53;;;19.40;79.30;;;;;;5057392;28;20029;-65
2023/10/04 02:46:44;;;;;;;51.83;37.65;;;19.40;79.30;;;;;;5057791;28;20040;-65
2023/10/04 02:49:11;;;;;;;50.63;38.08;;;19.40;79.20;;;;;;5057585;28;20021;-64
2023/10/04 02:51:45;;;;;;;51.17;38.20;;;19.40;79.20;;;;;;5058119;28;20051;-64
2023/10/04 02:54:12;;;;;;;;;;;19.40;79.50;;;;;;5057838;28;20037;-65
2023/10/04 02:56:45;;;;;;;41.03;30.42;;;19.40;80.00;;;;;;5057949;28;20004;-64
2023/10/04 02:59:11;;;;;;;;;;;19.40;79.30;;;;;;5058145;28;20033;-64
2023/10/04 03:01:37;;;;;;;41.67;32.63;;;19.40;80.00;;;;;;5057656;28;19904;-64
2023/10/04 03:04:06;;;;;;;41.60;32.10;;;19.40;79.20;;;;;;5057262;28;20025;-64
2023/10/04 03:06:32;;;;;;;40.38;32.00;;;19.50;78.80;;;;;;5057302;28;20021;-64
2023/10/04 03:08:57;;;;;;;41.03;32.50;;;19.50;78.90;;;;;;5057253;28;20120;-64
2023/10/04 03:11:25;;;;;;;44.85;33.42;;;19.50;78.90;;;;;;5057444;28;20501;-64
2023/10/04 03:14:08;;;;;;;43.53;33.20;;;19.50;78.90;;;;;;5057063;28;20033;-64
2023/10/04 03:16:36;;;;;;;52.17;36.85;;;19.50;79.40;;;;;;5057627;28;20029;-64
2023/10/04 03:19:03;;;;;;;40.22;30.88;;;19.50;79.60;;;;;;5057326;28;20470;-64
2023/10/04 03:21:33;;;;;;;40.92;30.65;;;19.50;79.10;;;;;;5056968;28;20029;-64
2023/10/04 03:23:59;;;;;;;36.65;28.67;;;19.50;79.00;;;;;;5057124;28;20039;-64
2023/10/04 03:26:29;;;;;;;46.17;36.05;;;19.50;79.10;;;;;;5057163;28;20021;-64
2023/10/04 03:28:55;;;;;;;50.03;38.67;;;19.50;79.40;;;;;;5057068;28;20033;-65
2023/10/04 03:31:22;;;;;;;43.78;32.70;;;19.50;79.70;;;;;;5057369;28;20036;-64
2023/10/04 03:33:49;;;;;;;50.08;38.13;;;19.50;79.40;;;;;;5057024;28;20040;-64
2023/10/04 03:36:18;;;;;;;52.85;39.83;;;19.50;79.70;;;;;;5056545;28;20029;-64
2023/10/04 03:38:45;;;;;;;43.28;34.13;;;19.40;79.90;;;;;;5056035;28;20061;-64
2023/10/04 03:41:19;;;;;;;39.28;31.20;;;19.40;80.00;;;;;;5056622;28;20331;-64
2023/10/04 03:43:50;;;;;;;44.92;32.53;;;19.40;79.70;;;;;;5056686;28;20029;-64
2023/10/04 03:46:20;;;;;;;49.65;36.58;;;19.40;79.70;;;;;;5056428;28;20035;-64
2023/10/04 03:48:51;;;;;;;38.85;29.85;;;19.40;80.00;;;;;;5056681;28;20053;-64
2023/10/04 03:51:22;;;;;;;40.05;31.88;;;19.40;79.50;;;;;;5056981;28;20047;-64
2023/10/04 03:53:50;;;;;;;41.00;33.08;;;19.40;79.60;;;;;;5056308;28;20033;-64
2023/10/04 03:56:18;;;;;;;38.03;29.25;;;19.40;79.80;;;;;;5056560;28;20082;-64
2023/10/04 03:58:44;;;;;;;40.58;30.58;;;19.40;79.60;;;;;;5056441;28;20090;-64
2023/10/04 04:01:10;;;;;;;37.63;30.98;;;19.40;79.60;;;;;;5056525;28;20100;-64
2023/10/04 04:03:37;;;;;;;40.30;32.00;;;19.40;79.50;;;;;;5056383;28;20490;-64
2023/10/04 04:06:04;;;;;;;39.33;29.83;;;19.40;79.70;;;;;;5038571;28;20035;-64
2023/10/04 04:08:30;;;;;;;38.10;31.10;;;19.40;79.80;;;;;;5055962;28;20075;-64
2023/10/04 04:10:57;;;;;;;40.85;32.40;;;19.40;79.70;;;;;;5056088;28;20021;-64
2023/10/04 04:13:25;;;;;;;44.20;33.90;;;19.50;79.90;;;;;;5056015;28;20029;-64
2023/10/04 04:15:58;;;;;;;44.60;35.45;;;19.50;79.50;;;;;;5055827;28;20358;-64
2023/10/04 04:18:29;;;;;;;40.85;33.10;;;19.50;79.70;;;;;;5055815;28;20037;-65
2023/10/04 04:20:56;;;;;;;43.58;33.67;;;19.50;79.50;;;;;;5056415;28;20028;-64
2023/10/04 04:23:25;;;;;;;44.58;34.90;;;19.60;79.80;;;;;;5055783;28;20032;-64
2023/10/04 04:25:51;;;;;;;51.42;39.88;;;19.60;80.00;;;;;;5055763;28;20021;-64
2023/10/04 04:28:24;;;;;;;46.97;33.30;;;19.60;80.60;;;;;;5055925;28;20021;-64
2023/10/04 04:30:53;;;;;;;41.10;32.05;;;19.60;80.20;;;;;;5055974;28;20021;-64
2023/10/04 04:33:25;;;;;;;45.65;35.75;;;19.60;80.30;;;;;;5055597;28;20036;-64
2023/10/04 04:36:09;;;;;;;49.35;38.58;;;19.60;80.30;;;;;;5055620;28;20063;-64
2023/10/04 04:38:40;;;;;;;63.35;44.67;;;19.60;80.40;;;;;;5054713;28;20053;-64
2023/10/04 04:41:12;;;;;;;54.80;40.53;;;19.60;81.50;;;;;;5055468;28;20033;-64
2023/10/04 04:43:39;;;;;;;51.00;39.15;;;19.60;80.90;;;;;;5055427;28;20343;-64
2023/10/04 04:46:24;;;;;;;54.28;40.90;;;19.50;81.00;;;;;;5055702;28;20021;-64
2023/10/04 04:48:55;;;;;;;52.70;39.50;;;19.50;81.00;;;;;;5054739;28;20024;-64
2023/10/04 04:51:24;;;;;;;57.58;43.45;;;19.50;81.30;;;;;;5055973;28;20465;-64
2023/10/04 04:53:54;;;;;;;57.53;45.08;;;19.50;82.10;;;;;;5055394;28;20095;-65
2023/10/04 04:56:24;;;;;;;58.42;43.45;;;19.50;82.40;;;;;;5055891;28;20029;-64
2023/10/04 04:58:56;;;;;;;60.92;44.28;;;19.50;82.30;;;;;;5055298;28;20112;-64
2023/10/04 05:01:23;;;;;;;61.50;46.13;;;19.40;82.50;;;;;;5055182;28;20076;-65
2023/10/04 05:03:52;;;;;;;63.22;47.15;;;19.40;82.90;;;;;;5055099;28;20108;-65
2023/10/04 05:06:22;;;;;;;66.53;46.90;;;19.40;83.00;;;;;;5055159;28;20025;-65
2023/10/04 05:08:50;;;;;;;65.03;45.75;;;19.40;83.00;;;;;;5055893;28;20064;-65
2023/10/04 05:11:17;;;;;;;61.40;43.72;;;19.40;82.70;;;;;;5055170;28;20013;-65
2023/10/04 05:13:43;;;;;;;61.85;45.28;;;19.40;82.70;;;;;;5055119;28;20330;-65
2023/10/04 05:16:10;;;;;;;61.72;46.83;;;19.50;82.60;;;;;;5055480;28;20095;-65
2023/10/04 05:18:37;;;;;;;58.90;39.92;;;19.40;82.80;;;;;;5054986;28;20033;-64
2023/10/04 05:21:04;;;;;;;55.03;39.30;;;19.40;82.90;;;;;;5055116;28;20025;-65
2023/10/04 05:23:30;;;;;;;52.10;39.67;;;19.50;82.70;;;;;;5055244;28;20424;-65
2023/10/04 05:25:57;;;;;;;55.97;41.08;;;19.60;82.60;;;;;;5055082;28;20049;-64
2023/10/04 05:28:24;;;;;;;51.55;38.83;;;19.80;82.30;;;;;;5055224;28;20029;-64
2023/10/04 05:30:51;;;;;;;50.97;37.08;;;19.90;82.00;;;;;;5055294;28;20021;-64
2023/10/04 05:33:19;;;;;;;47.63;35.15;;;20.00;81.70;;;;;;5054938;28;20346;-64
2023/10/04 05:35:48;;;;;;;49.42;36.08;;;20.20;81.50;;;;;;5055194;28;20446;-65
2023/10/04 05:38:17;;;;;;;55.42;38.63;;;20.20;81.20;;;;;;5054570;28;20132;-65
2023/10/04 05:40:45;;;;;;;47.17;34.10;;;20.30;81.10;;;;;;5054799;28;20533;-64
2023/10/04 05:43:14;;;;;;;58.63;41.25;;;20.40;80.90;;;;;;5054758;28;20464;-64
2023/10/04 05:45:44;;;;;;;55.10;38.35;;;20.40;80.70;;;;;;5054816;28;20024;-64
2023/10/04 05:48:11;;;;;;;45.38;34.72;;;20.50;80.50;;;;;;5037206;28;20021;-65
2023/10/04 05:50:39;;;;;;;50.63;37.05;;;20.50;80.30;;;;;;5055069;28;20346;-64
2023/10/04 05:53:06;;;;;;;48.80;38.30;;;20.50;80.20;;;;;;5055039;28;20021;-64
2023/10/04 05:55:36;;;;;;;55.40;41.45;;;20.40;80.10;;;;;;5066855;28;20024;-63
2023/10/04 05:58:07;;;;;;;56.30;43.08;;;20.40;80.40;;;;;;5074733;28;20028;-65
2023/10/04 06:00:34;;;;;;;58.30;44.95;;;20.30;80.40;;;;;;5078365;28;20024;-64
2023/10/04 06:03:13;;;;;;;60.70;45.30;;;20.20;80.90;;;;;;5078614;28;20060;-62
2023/10/04 06:05:41;;;;;;;51.53;39.28;;;20.10;81.70;;;;;;5078245;28;20458;-63
2023/10/04 06:08:15;;;;;;;56.83;43.55;;;20.10;81.50;;;;;;5078548;28;20029;-64
2023/10/04 06:10:43;;;;;;;56.90;42.15;;;20.00;81.80;;;;;;5077377;28;20350;-63
2023/10/04 06:13:11;;;;;;;62.03;44.88;;;19.90;82.10;;;;;;5078167;28;20439;-63
2023/10/04 06:15:42;;;;;;;60.25;43.85;;;19.90;82.00;;;;;;5077236;28;20025;-64
2023/10/04 06:18:09;;;;;;;65.45;47.63;;;19.90;82.30;;;;;;5078155;28;20029;-64
2023/10/04 06:20:41;;;;;;;61.65;46.22;;;19.90;82.80;;;;;;5078399;28;20024;-65
2023/10/04 06:23:14;;;;;;;54.57;41.30;;;19.90;82.60;;;;;;5077998;28;20037;-64
2023/10/04 06:25:42;;;;;;;57.23;43.20;;;19.80;82.40;;;;;;5076988;28;20487;-63
2023/10/04 06:28:11;;;;;;;61.45;45.67;;;19.80;82.20;;;;;;5077925;28;20250;-64
2023/10/04 06:30:38;;;;;;;62.85;46.63;;;19.80;82.60;;;;;;5078186;28;20350;-65
2023/10/04 06:33:07;;;;;;;60.25;43.78;;;19.80;82.60;;;;;;5077879;28;20095;-65
2023/10/04 06:35:33;;;;;;;64.80;45.38;;;19.90;82.40;;;;;;5077799;28;20036;-64
2023/10/04 06:38:00;;;;;;;61.25;44.70;;;19.90;82.50;;;;;;5077990;28;20039;-63
2023/10/04 06:40:29;;;;;;;61.38;45.05;;;19.90;82.40;;;;;;5078404;28;20044;-64
2023/10/04 06:42:56;;;;;;;64.40;45.67;;;19.80;82.40;;;;;;5076668;28;20020;-64
2023/10/04 06:45:26;;;;;;;61.88;45.30;;;19.90;82.60;;;;;;5077932;28;20021;-63
2023/10/04 06:47:54;;;;;;;64.18;47.90;;;19.80;82.60;;;;;;5077564;28;20027;-64
2023/10/04 06:50:23;;;;;;;60.00;44.70;;;19.80;82.70;;;;;;5077502;28;20429;-64
2023/10/04 06:52:51;;;;;;;63.90;45.72;;;19.80;82.40;;;;;;5076644;28;20016;-65
2023/10/04 06:55:19;;;;;;;63.40;45.63;;;19.80;82.80;;;;;;5077359;28;20017;-66
2023/10/04 06:57:46;;;;;;;59.47;44.08;;;19.80;82.80;;;;;;5077441;28;20020;-64
2023/10/04 07:00:19;;;;;;;63.72;44.85;;;19.80;82.60;;;;;;5077479;28;20017;-63
2023/10/04 07:02:47;;;;;;;62.30;44.15;;;19.80;82.50;;;;;;5077062;28;20125;-66
2023/10/04 07:05:26;;;;;;;62.88;44.88;;;19.80;82.60;;;;;;5077384;28;20103;-67
2023/10/04 07:07:56;;;;;;;60.75;44.40;;;19.90;82.70;;;;;;5076063;28;20433;-62
2023/10/04 07:12:51;;;;;;;62.85;44.17;;;19.90;83.10;;;;;;5077600;28;20040;-61
2023/10/04 07:15:19;;;;;;;63.08;45.88;;;19.90;83.00;;;;;;5077211;28;20032;-60
2023/10/04 07:17:47;;;;;;;58.13;43.00;;;19.90;83.20;;;;;;5076843;28;20052;-60
2023/10/04 07:20:15;;;;;;;59.38;45.00;;;19.90;83.10;;;;;;5076779;28;20042;-59
2023/10/04 07:23:07;;;;;;;65.97;45.42;;;19.90;83.20;;;;;;5073748;28;20101;-60
2023/10/04 07:25:47;;;;;;;60.95;43.72;;;19.90;83.40;;;;;;5058338;28;20104;-68
2023/10/04 07:28:13;;;;;;;62.00;43.75;;;19.90;83.20;;;;;;5054838;28;20029;-65
2023/10/04 07:30:40;;;;;;;61.78;44.55;;;19.90;83.20;;;;;;5054725;28;20025;-68
2023/10/04 07:33:07;;;;;;;61.72;44.53;;;19.90;83.20;;;;;;5036885;28;20051;-66
2023/10/04 07:35:34;;;;;;;67.32;42.63;;;19.90;83.10;;;;;;5036818;28;20087;-65
2023/10/04 07:38:00;;;;;;;60.08;44.13;;;19.90;83.00;;;;;;5054150;28;20521;-65
2023/10/04 07:40:27;;;;;;;58.88;42.85;;;19.90;83.00;;;;;;5055373;28;20115;-67
2023/10/04 07:42:54;;;;;;;64.30;45.35;;;20.00;83.00;;;;;;5056609;28;20032;-66
2023/10/04 07:45:28;;;;;;;65.05;43.78;;;20.00;83.20;;;;;;5056793;28;20021;-66
2023/10/04 07:47:56;;;;;;;63.50;43.33;;;20.00;82.90;;;;;;5056264;28;20060;-66
2023/10/04 07:50:23;;;;;;;65.45;46.78;;;20.10;83.20;;;;;;5056139;28;20021;-65
2023/10/04 07:52:50;;;;;;;61.80;42.78;;;20.10;83.30;;;;;;5056057;28;20040;-65
2023/10/04 07:55:22;;;;;;;61.95;45.60;;;20.10;83.00;;;;;;5038678;28;20031;-64
2023/10/04 07:57:50;;;;;;;60.08;44.13;;;20.20;83.10;;;;;;5056323;28;20025;-65
2023/10/04 08:00:17;;;;;;;61.75;44.92;;;20.20;83.00;;;;;;5056363;28;20017;-65
2023/10/04 08:02:50;;;;;;;64.32;46.45;;;20.20;83.10;;;;;;5056063;28;20025;-65
2023/10/04 08:05:27;;;;;;;62.50;45.07;;;20.20;83.00;;;;;;5055953;28;20333;-65
2023/10/04 08:07:54;;;;;;;66.47;44.80;;;20.30;83.00;;;;;;5056371;28;20257;-65
2023/10/04 08:10:23;;;;;;;61.58;45.05;;;20.30;83.10;;;;;;5055912;28;20466;-64
2023/10/04 08:12:54;;;;;;;61.88;43.97;;;20.30;83.00;;;;;;5055984;28;20063;-65
2023/10/04 08:15:22;;;;;;;59.85;42.38;;;20.40;83.00;;;;;;5056261;28;20021;-65
2023/10/04 08:17:49;;;;;;;62.58;42.05;;;20.40;83.00;;;;;;5055833;28;20059;-65
2023/10/04 08:20:16;;;;;;;62.38;43.03;;;20.40;82.90;;;;;;5056438;28;20021;-65
2023/10/04 08:22:42;;;;;;;59.22;41.80;;;20.40;82.90;;;;;;5055780;28;20029;-65
2023/10/04 08:25:10;;;;;;;56.80;41.40;;;20.40;82.80;;;;;;5055774;28;20021;-65
2023/10/04 08:27:37;;;;;;;57.13;40.45;;;20.40;82.80;;;;;;5055725;28;20021;-64
2023/10/04 08:30:05;;;;;;;54.72;39.72;;;20.50;82.70;;;;;;5056257;28;20017;-64
2023/10/04 08:32:31;;;;;;;58.47;42.65;;;20.50;82.60;;;;;;5038128;28;20021;-64
2023/10/04 08:34:59;;;;;;;59.00;43.13;;;20.50;82.50;;;;;;5055875;28;20029;-64
2023/10/04 08:37:27;;;;;;;58.78;40.50;;;20.50;82.60;;;;;;5055786;28;20025;-64
2023/10/04 08:39:53;;;;;;;63.22;42.25;;;20.50;82.50;;;;;;5054991;28;20053;-64
2023/10/04 08:42:20;;;;;;;61.25;42.90;;;20.60;82.50;;;;;;5056047;28;20028;-64
2023/10/04 08:44:49;;;;;;;57.28;42.10;;;20.50;82.60;;;;;;5055705;28;20513;-64
2023/10/04 08:47:16;;;;;;;55.88;39.75;;;20.60;82.60;;;;;;5055438;28;20036;-64
2023/10/04 08:49:54;;;;;;;55.55;40.13;;;20.60;82.50;;;;;;5055371;28;20120;-64
2023/10/04 08:52:36;;;;;;;52.55;37.60;;;20.60;82.50;;;;;;5055386;28;20033;-64
2023/10/04 08:55:10;;;;;;;51.80;38.20;;;20.60;82.40;;;;;;5055950;28;20067;-64
2023/10/04 08:57:39;;;;;;;56.90;41.35;;;20.60;82.50;;;;;;5055245;28;20033;-65
2023/10/04 09:00:13;;;;;;;58.42;40.22;;;20.70;82.50;;;;;;5055853;28;20454;-64
2023/10/04 09:02:45;;;;;;;;;;;20.70;82.40;;;;;;5055674;28;20040;-65
2023/10/04 09:05:16;;;;;;;61.38;41.50;;;20.80;82.90;;;;;;5055175;28;19905;-64
2023/10/04 09:07:45;;;;;;;54.58;38.97;;;20.80;82.80;;;;;;5055193;28;20066;-63
2023/10/04 09:10:16;;;;;;;55.08;39.10;;;20.90;82.50;;;;;;5055209;28;20029;-62
2023/10/04 09:12:43;;;;;;;59.38;39.55;;;20.90;82.50;;;;;;5055754;28;20032;-65
2023/10/04 09:15:13;;;;;;;53.40;37.00;;;20.90;82.40;;;;;;5055204;28;20035;-65
2023/10/04 09:17:55;;;;;;;51.97;38.03;;;21.00;82.40;;;;;;5055369;28;20033;-65
2023/10/04 09:20:29;;;;;;;54.05;38.47;;;21.10;82.20;;;;;;5055450;28;20044;-64
2023/10/04 09:23:00;;;;;;;47.42;36.75;;;21.20;82.00;;;;;;5055044;28;20511;-65
2023/10/04 09:25:40;;;;;;;51.15;38.08;;;21.30;81.50;;;;;;5055002;28;20108;-65
2023/10/04 09:28:11;;;;;;;44.08;35.05;;;21.40;81.20;;;;;;5054955;28;20021;-64
2023/10/04 09:30:37;;;;;;;51.42;36.95;;;21.40;81.10;;;;;;5055513;28;20021;-64
2023/10/04 09:33:28;;;;;;;50.35;36.05;;;21.50;80.60;;;;;;5055005;28;20036;-64
2023/10/04 09:35:59;;;;;;;44.03;33.88;;;21.70;80.80;;;;;;5059077;28;20051;-65
2023/10/04 09:38:25;;;;;;;41.45;32.88;;;21.80;79.80;;;;;;5058620;28;20045;-64
2023/10/04 09:40:56;;;;;;;44.40;33.55;;;21.90;79.30;;;;;;5058887;28;20032;-65
2023/10/04 09:43:36;;;;;;;40.60;31.73;;;22.00;78.30;;;;;;5058781;28;20025;-64
2023/10/04 09:46:07;;;;;;;44.33;32.80;;;22.00;77.70;;;;;;5042097;28;20028;-64
2023/10/04 09:48:44;;;;;;;35.53;28.90;;;22.10;78.30;;;;;;5058389;28;20025;-65
2023/10/04 09:51:10;;;;;;;38.58;30.58;;;22.20;77.90;;;;;;5058738;28;20055;-64
2023/10/04 09:53:39;;;;;;;40.65;30.15;;;22.30;76.90;;;;;;5057623;28;20458;-65
2023/10/04 09:56:07;;;;;;;37.70;27.55;;;22.40;76.90;;;;;;5058498;28;20032;-64
2023/10/04 09:58:35;;;;;;;32.72;25.23;;;22.40;76.80;;;;;;5058344;28;20450;-64
2023/10/04 10:01:09;;;;;;;31.33;25.00;;;22.50;75.50;;;;;;5057755;28;20484;-63
2023/10/04 10:03:59;;;;;;;31.48;26.35;;;22.60;74.80;;;;;;5057551;28;20061;-65
2023/10/04 10:06:32;;;;;;;29.73;25.13;;;22.60;74.60;;;;;;5058287;28;20025;-65
2023/10/04 10:09:05;;;;;;;35.08;26.13;;;22.60;74.40;;;;;;5058639;28;20025;-62
2023/10/04 10:11:32;;;;;;;29.77;24.83;;;22.60;74.50;;;;;;5058887;28;20082;-62
2023/10/04 10:14:02;;;;;;;35.90;27.25;;;22.70;74.90;;;;;;5058261;28;20465;-64
2023/10/04 10:16:28;;;;;;;32.33;26.55;;;22.70;74.50;;;;;;5058145;28;20481;-64
2023/10/04 10:18:57;;;;;;;35.25;28.27;;;22.70;74.10;;;;;;5058099;28;20043;-64
2023/10/04 10:22:02;;;;;;;34.33;27.63;;;22.70;73.80;;;;;;5058088;28;20421;-64
2023/10/04 10:24:28;;;;;;;33.70;26.13;;;22.60;73.80;;;;;;5058007;28;20025;-64
2023/10/04 10:27:15;;;;;;;35.63;26.17;;;22.60;74.20;;;;;;5057978;28;20027;-64
2023/10/04 10:29:43;;;;;;;32.00;25.90;;;22.60;73.40;;;;;;5058289;28;20028;-64
2023/10/04 10:32:23;;;;;;;35.70;28.63;;;22.60;74.00;;;;;;5057913;28;20354;-64
2023/10/04 10:34:52;;;;;;;33.42;24.90;;;22.60;74.20;;;;;;5058474;28;20079;-64
2023/10/04 10:37:22;;;;;;;31.35;25.85;;;22.60;74.00;;;;;;5058025;28;20055;-64
2023/10/04 10:39:56;;;;;;;28.70;23.00;;;22.60;74.10;;;;;;5057558;28;20060;-64
2023/10/04 10:42:22;;;;;;;30.30;22.45;;;22.50;73.70;;;;;;5058006;28;20021;-64
2023/10/04 10:44:50;;;;;;;27.08;23.40;;;22.60;73.30;;;;;;5057822;28;20024;-64
2023/10/04 10:47:23;;;;;;;26.75;21.77;;;22.60;72.90;;;;;;5056951;28;20021;-64
2023/10/04 10:49:52;;;;;;;28.17;21.85;;;22.60;72.60;;;;;;5057942;28;20087;-64
2023/10/04 10:52:31;;;;;;;30.13;21.48;;;22.60;72.30;;;;;;5058151;28;20059;-64
2023/10/04 10:54:58;;;;;;;26.83;20.73;;;22.60;71.20;;;;;;5040529;28;20327;-64
2023/10/04 10:57:29;;;;;;;23.25;19.92;;;22.70;70.40;;;;;;5057632;28;20472;-64
2023/10/04 11:00:07;;;;;;;26.23;19.63;;;22.60;70.60;;;;;;5058038;28;20028;-65
2023/10/04 11:02:33;;;;;;;26.80;19.35;;;22.60;69.90;;;;;;5057389;28;20064;-64
2023/10/04 11:04:59;;;;;;;27.60;20.67;;;22.60;70.10;;;;;;5057846;28;20029;-65
2023/10/04 11:07:26;;;;;;;24.85;20.60;;;22.60;69.70;;;;;;5039620;28;20469;-64
2023/10/04 11:09:54;;;;;;;24.60;19.38;;;22.50;68.70;;;;;;5057553;28;20029;-64
2023/10/04 11:12:26;;;;;;;23.38;19.88;;;22.50;69.40;;;;;;5039626;28;20045;-64
2023/10/04 11:14:53;;;;;;;26.58;20.75;;;22.50;69.80;;;;;;5057122;28;20108;-64
2023/10/04 11:17:21;;;;;;;27.13;22.35;;;22.40;70.30;;;;;;5057337;28;20159;-64
2023/10/04 11:19:50;;;;;;;28.35;23.67;;;22.40;70.80;;;;;;5057594;28;20044;-64
2023/10/04 11:22:17;;;;;;;31.55;23.95;;;22.40;71.10;;;;;;5057858;28;20029;-64
2023/10/04 11:24:44;;;;;;;30.40;24.77;;;22.30;71.20;;;;;;5056925;28;20035;-65
2023/10/04 11:27:11;;;;;;;30.27;24.70;;;22.20;72.00;;;;;;5056853;28;20025;-64
2023/10/04 11:29:38;;;;;;;31.98;25.25;;;22.10;72.40;;;;;;5057168;28;20021;-64
2023/10/04 11:32:06;;;;;;;34.17;24.88;;;22.00;73.00;;;;;;5057126;28;20021;-64
2023/10/04 11:34:37;;;;;;;30.77;24.65;;;21.90;73.40;;;;;;5056964;28;20037;-64
2023/10/04 11:37:04;;;;;;;31.08;25.80;;;21.90;73.80;;;;;;5056602;28;20083;-64
2023/10/04 11:39:35;;;;;;;34.33;27.33;;;21.80;73.90;;;;;;5056444;28;20079;-64
2023/10/04 11:42:17;;;;;;;35.97;28.02;;;21.80;73.80;;;;;;5057299;28;20342;-64
2023/10/04 11:44:45;;;;;;;32.58;27.02;;;21.70;74.60;;;;;;5056458;28;20389;-64
2023/10/04 11:47:15;;;;;;;32.15;26.63;;;21.60;74.60;;;;;;5056873;28;20029;-64
2023/10/04 11:50:09;;;;;;;34.30;26.10;;;21.50;74.60;;;;;;5039076;28;20033;-65
2023/10/04 11:55:24;;;;;;;31.73;25.63;;;21.50;74.40;;;;;;5056889;28;20032;-64
2023/10/04 11:57:51;;;;;;;33.45;24.30;;;21.50;74.40;;;;;;5056200;28;20115;-64
2023/10/04 12:00:26;;;;;;;39.67;27.73;;;21.50;74.60;;;;;;5056205;28;20052;-65
2023/10/04 12:02:52;;;;;;;31.30;26.60;;;21.50;74.70;;;;;;5056408;28;20029;-65
2023/10/04 12:05:18;;;;;;;35.60;27.30;;;21.40;74.80;;;;;;5056055;28;20028;-64
2023/10/04 12:07:44;;;;;;;32.85;25.75;;;21.40;75.10;;;;;;5038417;28;20032;-64
2023/10/04 12:10:13;;;;;;;34.22;27.20;;;21.40;75.00;;;;;;5056323;28;20032;-64
2023/10/04 12:12:40;;;;;;;34.97;26.63;;;21.40;74.80;;;;;;5055939;28;20035;-64
2023/10/04 12:15:07;;;;;;;34.45;25.90;;;21.40;74.90;;;;;;5055971;28;20028;-64
2023/10/04 12:17:34;;;;;;;35.60;27.35;;;21.40;75.00;;;;;;5056030;28;20120;-64
2023/10/04 12:20:06;;;;;;;37.53;28.77;;;21.40;74.80;;;;;;5056123;28;20029;-64
2023/10/04 12:22:32;;;;;;;40.10;30.63;;;21.40;74.80;;;;;;5056579;28;20035;-64
2023/10/04 12:24:59;;;;;;;38.95;29.25;;;21.40;74.90;;;;;;5055927;28;20021;-64
2023/10/04 12:27:27;;;;;;;37.95;28.58;;;21.40;75.30;;;;;;5056220;28;20107;-64
2023/10/04 12:29:53;;;;;;;36.25;29.17;;;21.50;75.60;;;;;;5055711;28;20055;-64
2023/10/04 12:32:19;;;;;;;37.35;29.55;;;21.60;75.80;;;;;;5056195;28;20029;-64
2023/10/04 12:34:48;;;;;;;34.88;28.75;;;21.80;76.20;;;;;;5056076;28;20025;-64
2023/10/04 12:37:14;;;;;;;35.38;27.35;;;21.90;75.10;;;;;;5055461;28;20029;-64
2023/10/04 12:39:43;;;;;;;36.35;27.85;;;22.10;74.80;;;;;;5054706;28;20045;-64
2023/10/04 12:42:09;;;;;;;34.40;25.63;;;22.20;74.50;;;;;;5055732;28;20051;-64
2023/10/04 12:44:37;;;;;;;34.05;24.67;;;22.30;73.20;;;;;;5055374;28;20017;-64
2023/10/04 12:47:04;;;;;;;28.83;23.02;;;22.40;72.00;;;;;;5055314;28;20438;-64